Ncc Rabigh — HZQA — position and weather

sailwx.info

Track history (hours):
 
Tides and Currents Weather Stations Pressure Air Temp Water Temp Dewpoint Dewpoint Depression Visibility Wind Speed Wind Dir Waves Ship Positions

Ncc Rabigh

Last reported at 2017-Feb-21 17:30 UTC. Time now 2017-Feb-21 18:54 UTC.
Position N 31°35' E 121°18'.

Length 183 m; draft 10.3 m.

Type: Ship. MMSI: 403575000.

Date/timePositionNaut miles runAvg speedWind from/ knotsBaromVisibWave heightAir tempDewpointWater temp
2017-Feb-21 17:30N 31°35' E 121°18'0 0.0
2017-Feb-21 16:18N 31°35' E 121°18'0 0.0
2017-Feb-21 13:12N 31°35' E 121°18'0 0.0
2017-Feb-21 04:18N 31°35' E 121°18'0 0.0
2017-Feb-21 03:30N 31°35' E 121°18'0 0.0
2017-Feb-20 21:12N 31°35' E 121°18'0 0.0
2017-Feb-20 20:18N 31°35' E 121°18'0 0.0
2017-Feb-20 19:30N 31°35' E 121°18'0 0.0
2017-Feb-20 18:24N 31°35' E 121°18'0 0.0
2017-Feb-20 16:30N 31°35' E 121°18'0 0.0
2017-Feb-20 15:30N 31°35' E 121°18'0 0.0
2017-Feb-20 12:30N 31°35' E 121°17'0 0.0
2017-Feb-20 06:24N 31°35' E 121°18'0 0.0
2017-Feb-20 02:18N 31°35' E 121°18'1 1.2
2017-Feb-20 01:34N 31°35' E 121°19'1 0.8
2017-Feb-20 00:33N 31°34' E 121°19'0 0.0
2017-Feb-19 23:33N 31°34' E 121°19'0 0.1
2017-Feb-19 22:33N 31°34' E 121°19'0 0.1
2017-Feb-19 21:33N 31°34' E 121°19'0 0.0
2017-Feb-19 20:33N 31°34' E 121°19'0 0.1
2017-Feb-19 19:33N 31°34' E 121°20'0 0.1
2017-Feb-19 18:33N 31°34' E 121°20'0 0.0
2017-Feb-19 17:27N 31°34' E 121°20'0 0.0
2017-Feb-19 16:33N 31°34' E 121°20'0 0.0
2017-Feb-19 15:33N 31°34' E 121°20'0 0.0
2017-Feb-19 14:30N 31°34' E 121°20'0 0.0
2017-Feb-19 13:33N 31°34' E 121°20'0 0.1
2017-Feb-19 12:33N 31°34' E 121°20'0 0.1
2017-Feb-19 11:33N 31°34' E 121°20'0 0.1
2017-Feb-19 10:33N 31°34' E 121°19'0 0.0
2017-Feb-19 09:21N 31°34' E 121°19'0 0.0
2017-Feb-19 08:33N 31°34' E 121°19'0 0.1
2017-Feb-19 07:33N 31°34' E 121°20'0 0.1
2017-Feb-19 06:33N 31°34' E 121°20'0 0.0
2017-Feb-19 05:33N 31°34' E 121°20'0 0.0
2017-Feb-19 04:33N 31°34' E 121°20'0 0.1
2017-Feb-19 03:33N 31°34' E 121°20'0 0.0
2017-Feb-19 02:33N 31°34' E 121°20'0 0.1
2017-Feb-19 01:33N 31°34' E 121°20'0 0.1
2017-Feb-19 00:33N 31°34' E 121°19'0 0.0
2017-Feb-18 23:33N 31°34' E 121°19'0 0.1
2017-Feb-18 22:33N 31°34' E 121°19'0 0.0
2017-Feb-18 21:33N 31°34' E 121°19'0 0.0
2017-Feb-18 20:33N 31°34' E 121°19'0 0.0
2017-Feb-18 19:33N 31°34' E 121°19'0 0.2
2017-Feb-18 18:33N 31°34' E 121°20'0 0.1
2017-Feb-18 17:33N 31°34' E 121°20'0 0.0
2017-Feb-18 16:30N 31°34' E 121°20'0 0.1
2017-Feb-18 15:33N 31°34' E 121°20'0 0.0
2017-Feb-18 14:33N 31°34' E 121°20'0 0.0
2017-Feb-18 13:33N 31°34' E 121°20'0 0.4
2017-Feb-18 12:33N 31°34' E 121°20'4 4.2
2017-Feb-18 11:33N 31°31' E 121°23'10 9.9
2017-Feb-18 10:34N 31°25' E 121°32'1110.7
2017-Feb-18 09:33N 31°19' E 121°43'9 8.8
2017-Feb-18 08:33N 31°16' E 121°53'1010.1
2017-Feb-18 07:33N 31°14' E 122°04'10 9.7
2017-Feb-18 06:33N 31°09' E 122°14'9 9.3
2017-Feb-18 05:33N 31°07' E 122°24'26 2.3
2017-Feb-17 18:29N 31°05' E 122°54'1512.4
2017-Feb-17 17:17N 30°55' E 123°07'811.4
2017-Feb-17 16:32N 30°48' E 123°13'  
2017-Feb-13 11:28N 22°49' E 119°55'1312.6
2017-Feb-13 10:26N 22°36' E 119°54'1112.6
2017-Feb-13 09:33N 22°25' E 119°54'  
Track history (hours):
 
Tides and Currents Weather Stations Pressure Air Temp Water Temp Dewpoint Dewpoint Depression Visibility Wind Speed Wind Dir Waves Ship Positions

Ncc Rabigh

Last reported at 2017-Feb-21 17:30 UTC. Time now 2017-Feb-21 18:54 UTC.
Position N 31°35' E 121°18'.

Length 183 m; draft 10.3 m.

Type: Ship. MMSI: 403575000.

Date/timePositionNaut miles runAvg speedWind from/ knotsBaromVisibWave heightAir tempDewpointWater temp
2017-Feb-21 17:30N 31°35' E 121°18'0 0.0
2017-Feb-21 16:18N 31°35' E 121°18'0 0.0
2017-Feb-21 13:12N 31°35' E 121°18'0 0.0
2017-Feb-21 04:18N 31°35' E 121°18'0 0.0
2017-Feb-21 03:30N 31°35' E 121°18'0 0.0
2017-Feb-20 21:12N 31°35' E 121°18'0 0.0
2017-Feb-20 20:18N 31°35' E 121°18'0 0.0
2017-Feb-20 19:30N 31°35' E 121°18'0 0.0
2017-Feb-20 18:24N 31°35' E 121°18'0 0.0
2017-Feb-20 16:30N 31°35' E 121°18'0 0.0
2017-Feb-20 15:30N 31°35' E 121°18'0 0.0
2017-Feb-20 12:30N 31°35' E 121°17'0 0.0
2017-Feb-20 06:24N 31°35' E 121°18'0 0.0
2017-Feb-20 02:18N 31°35' E 121°18'1 1.2
2017-Feb-20 01:34N 31°35' E 121°19'1 0.8
2017-Feb-20 00:33N 31°34' E 121°19'0 0.0
2017-Feb-19 23:33N 31°34' E 121°19'0 0.1
2017-Feb-19 22:33N 31°34' E 121°19'0 0.1
2017-Feb-19 21:33N 31°34' E 121°19'0 0.0
2017-Feb-19 20:33N 31°34' E 121°19'0 0.1
2017-Feb-19 19:33N 31°34' E 121°20'0 0.1
2017-Feb-19 18:33N 31°34' E 121°20'0 0.0
2017-Feb-19 17:27N 31°34' E 121°20'0 0.0
2017-Feb-19 16:33N 31°34' E 121°20'0 0.0
2017-Feb-19 15:33N 31°34' E 121°20'0 0.0
2017-Feb-19 14:30N 31°34' E 121°20'0 0.0
2017-Feb-19 13:33N 31°34' E 121°20'0 0.1
2017-Feb-19 12:33N 31°34' E 121°20'0 0.1
2017-Feb-19 11:33N 31°34' E 121°20'0 0.1
2017-Feb-19 10:33N 31°34' E 121°19'0 0.0
2017-Feb-19 09:21N 31°34' E 121°19'0 0.0
2017-Feb-19 08:33N 31°34' E 121°19'0 0.1
2017-Feb-19 07:33N 31°34' E 121°20'0 0.1
2017-Feb-19 06:33N 31°34' E 121°20'0 0.0
2017-Feb-19 05:33N 31°34' E 121°20'0 0.0
2017-Feb-19 04:33N 31°34' E 121°20'0 0.1
2017-Feb-19 03:33N 31°34' E 121°20'0 0.0
2017-Feb-19 02:33N 31°34' E 121°20'0 0.1
2017-Feb-19 01:33N 31°34' E 121°20'0 0.1
2017-Feb-19 00:33N 31°34' E 121°19'0 0.0
2017-Feb-18 23:33N 31°34' E 121°19'0 0.1
2017-Feb-18 22:33N 31°34' E 121°19'0 0.0
2017-Feb-18 21:33N 31°34' E 121°19'0 0.0
2017-Feb-18 20:33N 31°34' E 121°19'0 0.0
2017-Feb-18 19:33N 31°34' E 121°19'0 0.2
2017-Feb-18 18:33N 31°34' E 121°20'0 0.1
2017-Feb-18 17:33N 31°34' E 121°20'0 0.0
2017-Feb-18 16:30N 31°34' E 121°20'0 0.1
2017-Feb-18 15:33N 31°34' E 121°20'0 0.0
2017-Feb-18 14:33N 31°34' E 121°20'0 0.0
2017-Feb-18 13:33N 31°34' E 121°20'0 0.4
2017-Feb-18 12:33N 31°34' E 121°20'4 4.2
2017-Feb-18 11:33N 31°31' E 121°23'10 9.9
2017-Feb-18 10:34N 31°25' E 121°32'1110.7
2017-Feb-18 09:33N 31°19' E 121°43'9 8.8
2017-Feb-18 08:33N 31°16' E 121°53'1010.1
2017-Feb-18 07:33N 31°14' E 122°04'10 9.7
2017-Feb-18 06:33N 31°09' E 122°14'9 9.3
2017-Feb-18 05:33N 31°07' E 122°24'26 2.3
2017-Feb-17 18:29N 31°05' E 122°54'1512.4
2017-Feb-17 17:17N 30°55' E 123°07'811.4
2017-Feb-17 16:32N 30°48' E 123°13'  
2017-Feb-13 11:28N 22°49' E 119°55'1312.6
2017-Feb-13 10:26N 22°36' E 119°54'1112.6
2017-Feb-13 09:33N 22°25' E 119°54'  

Dump ship's entire track history